Time;durP1;ratioP1;P1;durP2;ratioP2;P2;SDS_P1;SDS_P2;PMS_P1;PMS_P2;Temp;Humidity;BMP_temperature;BMP_pressure;BME280_temperature;BME280_humidity;BME280_pressure;Samples;Min_cycle;Max_cycle;Signal;HPM_P1;HPM_P2
2023/04/11 00:01:55;;;;;;;13.38;1.20;;;;;;;;;;5049015;28;20068;-81
2023/04/11 00:04:28;;;;;;;7.70;1.00;;;;;;;;;;5052058;28;20094;-80
2023/04/11 00:06:53;;;;;;;14.85;1.73;;;;;;;;;;5048276;28;20048;-80
2023/04/11 00:09:24;;;;;;;6.95;1.52;;;;;;;;;;5034715;28;20033;-80
2023/04/11 00:11:57;;;;;;;20.67;1.75;;;;;;;;;;5024260;28;20103;-80
2023/04/11 00:14:22;;;;;;;14.02;1.55;;;;;;;;;;5036757;28;20037;-80
2023/04/11 00:16:54;;;;;;;4.15;1.20;;;;;;;;;;5036694;28;20346;-80
2023/04/11 00:19:27;;;;;;;16.05;1.58;;;;;;;;;;5016417;28;20095;-80
2023/04/11 00:22:03;;;;;;;18.63;1.88;;;;;;;;;;5018494;28;20064;-80
2023/04/11 00:24:36;;;;;;;14.35;2.15;;;;;;;;;;5023458;28;20045;-80
2023/04/11 00:27:01;;;;;;;13.75;1.75;;;;;;;;;;5037994;28;20042;-80
2023/04/11 00:29:35;;;;;;;20.02;1.63;;;;;;;;;;5039014;28;20066;-80
2023/04/11 00:32:07;;;;;;;15.35;2.05;;;;;;;;;;5041810;28;20505;-80
2023/04/11 00:34:33;;;;;;;11.90;1.45;;;;;;;;;;5047479;28;20043;-80
2023/04/11 00:37:05;;;;;;;12.40;1.38;;;;;;;;;;5041689;28;20374;-80
2023/04/11 00:39:37;;;;;;;12.57;1.38;;;;;;;;;;5036651;28;20049;-80
2023/04/11 00:42:12;;;;;;;8.57;1.77;;;;;;;;;;5038868;28;20084;-80
2023/04/11 00:44:45;;;;;;;9.40;1.27;;;;;;;;;;5017164;28;20555;-80
2023/04/11 00:47:10;;;;;;;16.58;1.60;;;;;;;;;;5049048;28;20098;-80
2023/04/11 00:49:42;;;;;;;11.27;1.70;;;;;;;;;;5032174;28;20653;-80
2023/04/11 00:52:15;;;;;;;8.68;1.27;;;;;;;;;;5041702;28;20041;-80
2023/04/11 00:54:40;;;;;;;10.68;1.45;;;;;;;;;;5037655;28;20511;-80
2023/04/11 00:57:12;;;;;;;10.32;1.25;;;;;;;;;;5016225;28;20034;-80
2023/04/11 00:59:47;;;;;;;13.48;1.45;;;;;;;;;;5042380;28;20049;-80
2023/04/11 01:02:13;;;;;;;10.60;1.40;;;;;;;;;;5015001;28;20049;-80
2023/04/11 01:04:45;;;;;;;20.40;2.28;;;;;;;;;;5042157;28;20025;-80
2023/04/11 01:07:18;;;;;;;12.82;1.60;;;;;;;;;;5036918;28;20038;-81
2023/04/11 01:09:44;;;;;;;12.55;1.42;;;;;;;;;;5032775;28;20037;-80
2023/04/11 01:12:16;;;;;;;13.95;1.80;;;;;;;;;;5032030;28;20493;-80
2023/04/11 01:14:49;;;;;;;17.88;1.95;;;;;;;;;;5033572;28;20049;-80
2023/04/11 01:17:14;;;;;;;17.38;1.50;;;;;;;;;;5035166;28;20038;-80
2023/04/11 01:19:46;;;;;;;18.25;2.38;;;;;;;;;;5034056;28;20102;-80
2023/04/11 01:22:21;;;;;;;8.35;1.50;;;;;;;;;;5044696;28;20090;-80
2023/04/11 01:24:53;;;;;;;17.27;1.85;;;;;;;;;;5037388;28;20497;-80
2023/04/11 01:27:26;;;;;;;17.90;1.65;;;;;;;;;;5038840;28;20116;-80
2023/04/11 01:29:51;;;;;;;14.35;2.33;;;;;;;;;;5038496;28;20033;-80
2023/04/11 01:32:22;;;;;;;8.00;1.25;;;;;;;;;;5026739;28;20465;-80
2023/04/11 01:34:56;;;;;;;15.75;1.58;;;;;;;;;;5048292;28;20163;-80
2023/04/11 01:37:21;;;;;;;18.73;1.67;;;;;;;;;;5045931;28;20396;-80
2023/04/11 01:39:54;;;;;;;13.70;1.38;;;;;;;;;;5047086;28;20041;-81
2023/04/11 01:42:26;;;;;;;35.92;2.17;;;;;;;;;;5037767;28;20048;-80
2023/04/11 01:44:52;;;;;;;14.40;1.50;;;;;;;;;;5066993;28;20119;-80
2023/04/11 01:47:23;;;;;;;14.27;1.60;;;;;;;;;;5045547;28;20033;-80
2023/04/11 01:49:56;;;;;;;20.23;1.83;;;;;;;;;;5050054;28;20445;-80
2023/04/11 01:52:21;;;;;;;22.50;1.63;;;;;;;;;;5051525;28;20091;-81
2023/04/11 01:54:52;;;;;;;11.98;1.30;;;;;;;;;;5044255;28;20034;-80
2023/04/11 01:57:25;;;;;;;13.38;1.58;;;;;;;;;;5042761;28;20052;-81
2023/04/11 01:59:50;;;;;;;18.05;1.48;;;;;;;;;;5037064;28;20077;-80
2023/04/11 02:02:24;;;;;;;22.95;1.55;;;;;;;;;;5045465;28;20064;-80
2023/04/11 02:04:55;;;;;;;;;;;;;;;;;;5036933;28;20205;-80
2023/04/11 02:07:21;;;;;;;25.52;1.67;;;;;;;;;;5036074;28;20011;-80
2023/04/11 02:09:52;;;;;;;13.18;1.40;;;;;;;;;;5040057;28;20688;-80
2023/04/11 02:12:25;;;;;;;13.43;1.35;;;;;;;;;;5014081;28;20045;-81
2023/04/11 02:14:50;;;;;;;9.18;1.48;;;;;;;;;;5020983;28;20037;-80
2023/04/11 02:17:24;;;;;;;22.05;2.08;;;;;;;;;;5034572;28;20033;-80
2023/04/11 02:19:56;;;;;;;8.73;1.30;;;;;;;;;;5040756;28;20041;-80
2023/04/11 02:22:22;;;;;;;13.45;1.20;;;;;;;;;;5034612;28;20064;-80
2023/04/11 02:24:53;;;;;;;10.60;1.10;;;;;;;;;;5041388;28;20052;-80
2023/04/11 02:27:26;;;;;;;12.65;1.85;;;;;;;;;;5036636;28;20095;-81
2023/04/11 02:29:51;;;;;;;13.55;1.88;;;;;;;;;;5036216;28;20444;-80
2023/04/11 02:32:22;;;;;;;21.95;2.13;;;;;;;;;;5034976;28;20034;-80
2023/04/11 02:34:55;;;;;;;16.95;1.83;;;;;;;;;;5041177;28;20095;-80
2023/04/11 02:37:20;;;;;;;11.13;1.80;;;;;;;;;;5048236;28;20047;-80
2023/04/11 02:39:52;;;;;;;20.00;1.80;;;;;;;;;;5036872;28;20369;-81
2023/04/11 02:42:25;;;;;;;7.68;1.75;;;;;;;;;;5038411;28;20033;-80
2023/04/11 02:44:59;;;;;;;12.68;1.73;;;;;;;;;;5040941;28;20040;-80
2023/04/11 02:47:32;;;;;;;26.98;1.92;;;;;;;;;;5034866;28;20187;-80
2023/04/11 02:49:57;;;;;;;9.05;1.35;;;;;;;;;;5020611;28;20047;-79
2023/04/11 02:52:28;;;;;;;16.38;1.73;;;;;;;;;;5037646;28;20109;-80
2023/04/11 02:55:01;;;;;;;15.80;1.73;;;;;;;;;;5042705;28;20091;-80
2023/04/11 02:57:26;;;;;;;15.85;1.50;;;;;;;;;;5041182;28;20052;-81
2023/04/11 02:59:57;;;;;;;13.02;1.33;;;;;;;;;;5035834;28;20046;-80
2023/04/11 03:02:30;;;;;;;18.33;1.60;;;;;;;;;;5037999;28;20049;-81
2023/04/11 03:04:55;;;;;;;10.43;1.40;;;;;;;;;;5038223;28;20485;-80
2023/04/11 03:07:26;;;;;;;21.40;1.90;;;;;;;;;;5039148;28;20021;-81
2023/04/11 03:09:59;;;;;;;21.77;2.00;;;;;;;;;;5040971;28;20041;-81
2023/04/11 03:12:25;;;;;;;16.98;1.65;;;;;;;;;;5023702;28;20049;-81
2023/04/11 03:14:57;;;;;;;14.00;1.38;;;;;;;;;;5018123;28;20068;-80
2023/04/11 03:17:30;;;;;;;10.10;1.48;;;;;;;;;;5027697;28;20048;-81
2023/04/11 03:19:55;;;;;;;18.15;1.80;;;;;;;;;;5026818;28;20045;-81
2023/04/11 03:22:26;;;;;;;15.02;1.33;;;;;;;;;;5036104;28;20032;-81
2023/04/11 03:24:59;;;;;;;13.60;1.15;;;;;;;;;;5039662;28;20045;-80
2023/04/11 03:27:25;;;;;;;11.60;1.55;;;;;;;;;;5040624;28;20055;-81
2023/04/11 03:29:57;;;;;;;11.82;1.65;;;;;;;;;;5042676;28;20028;-81
2023/04/11 03:32:30;;;;;;;14.02;1.27;;;;;;;;;;5036463;28;20064;-81
2023/04/11 03:34:56;;;;;;;9.00;1.42;;;;;;;;;;5035581;28;20401;-81
2023/04/11 03:37:28;;;;;;;10.63;1.30;;;;;;;;;;5026228;28;20431;-81
2023/04/11 03:40:00;;;;;;;26.30;2.40;;;;;;;;;;5039768;28;20122;-81
2023/04/11 03:42:25;;;;;;;19.17;1.75;;;;;;;;;;5040962;28;20034;-81
2023/04/11 03:44:56;;;;;;;15.27;1.90;;;;;;;;;;5050681;28;20083;-81
2023/04/11 03:47:29;;;;;;;19.35;2.28;;;;;;;;;;5057389;28;20139;-81
2023/04/11 03:49:55;;;;;;;6.93;1.52;;;;;;;;;;5034181;28;20048;-81
2023/04/11 03:52:27;;;;;;;16.70;1.50;;;;;;;;;;5045503;28;20025;-81
2023/04/11 03:54:59;;;;;;;30.13;2.28;;;;;;;;;;5038795;28;20044;-80
2023/04/11 03:57:26;;;;;;;22.95;1.98;;;;;;;;;;5039563;28;20500;-81
2023/04/11 03:59:59;;;;;;;17.95;2.00;;;;;;;;;;5024510;28;20026;-81
2023/04/11 04:02:32;;;;;;;20.13;2.92;;;;;;;;;;5031353;28;20064;-81
2023/04/11 04:04:58;;;;;;;19.58;2.42;;;;;;;;;;5051795;28;20040;-81
2023/04/11 04:07:34;;;;;;;19.00;1.70;;;;;;;;;;5047762;28;20487;-81
2023/04/11 04:10:06;;;;;;;20.33;1.98;;;;;;;;;;5045181;28;20037;-81
2023/04/11 04:12:39;;;;;;;17.75;1.58;;;;;;;;;;5049770;28;20060;-81
2023/04/11 04:15:05;;;;;;;12.35;1.45;;;;;;;;;;5029938;28;20048;-81
2023/04/11 04:17:37;;;;;;;22.58;1.38;;;;;;;;;;5043146;28;20041;-81
2023/04/11 04:20:09;;;;;;;15.18;2.08;;;;;;;;;;5033165;28;20041;-81
2023/04/11 04:22:37;;;;;;;7.40;1.67;;;;;;;;;;5024402;28;20040;-80
2023/04/11 04:25:18;;;;;;;18.13;1.27;;;;;;;;;;5048912;28;20039;-81
2023/04/11 04:27:45;;;;;;;14.30;2.30;;;;;;;;;;5049796;28;20056;-81
2023/04/11 04:30:27;;;;;;;11.90;1.48;;;;;;;;;;5041821;28;20026;-81
2023/04/11 04:32:53;;;;;;;20.08;1.67;;;;;;;;;;5032362;28;20116;-81
2023/04/11 04:35:31;;;;;;;11.93;1.70;;;;;;;;;;5043482;28;20033;-81
2023/04/11 04:38:04;;;;;;;21.75;2.00;;;;;;;;;;5039921;28;20083;-81
2023/04/11 04:40:43;;;;;;;10.82;1.20;;;;;;;;;;5049378;28;20028;-81
2023/04/11 04:43:17;;;;;;;7.85;1.77;;;;;;;;;;5034356;28;20048;-80
2023/04/11 04:45:55;;;;;;;14.73;1.60;;;;;;;;;;5034699;28;20022;-80
2023/04/11 04:48:24;;;;;;;21.33;1.90;;;;;;;;;;5025855;28;20293;-81
2023/04/11 04:51:02;;;;;;;11.65;1.92;;;;;;;;;;5040997;28;20417;-81
2023/04/11 04:53:28;;;;;;;2.95;1.20;;;;;;;;;;5041141;28;20041;-81
2023/04/11 04:55:53;;;;;;;14.43;1.60;;;;;;;;;;5042995;28;20033;-81
2023/04/11 04:58:31;;;;;;;9.95;1.25;;;;;;;;;;5041739;28;20037;-81
2023/04/11 05:00:57;;;;;;;5.65;1.60;;;;;;;;;;5047905;28;20045;-81
2023/04/11 05:03:22;;;;;;;7.28;1.42;;;;;;;;;;5055375;28;20033;-81
2023/04/11 05:06:01;;;;;;;6.28;1.05;;;;;;;;;;5043503;28;20116;-81
2023/04/11 05:08:26;;;;;;;15.10;2.22;;;;;;;;;;5054119;28;20107;-81
2023/04/11 05:10:52;;;;;;;17.67;1.27;;;;;;;;;;5052681;28;20017;-81
2023/04/11 05:13:30;;;;;;;8.70;1.40;;;;;;;;;;5048892;28;20040;-81
2023/04/11 05:15:56;;;;;;;16.63;1.20;;;;;;;;;;5041944;28;20037;-81
2023/04/11 05:18:21;;;;;;;8.02;1.20;;;;;;;;;;5053634;28;20047;-81
2023/04/11 05:21:00;;;;;;;10.88;1.67;;;;;;;;;;5039236;28;20087;-81
2023/04/11 05:23:25;;;;;;;13.40;1.30;;;;;;;;;;5042055;28;20033;-81
2023/04/11 05:25:50;;;;;;;10.77;1.27;;;;;;;;;;5037333;28;20074;-81
2023/04/11 05:28:28;;;;;;;11.25;1.67;;;;;;;;;;5044286;28;20111;-81
2023/04/11 05:30:54;;;;;;;12.35;1.10;;;;;;;;;;5029965;28;20064;-81
2023/04/11 05:33:20;;;;;;;11.68;1.40;;;;;;;;;;5049700;28;20045;-81
2023/04/11 05:35:59;;;;;;;4.05;0.98;;;;;;;;;;5040833;28;20025;-81
2023/04/11 05:38:24;;;;;;;11.57;1.73;;;;;;;;;;5037055;28;20038;-81
2023/04/11 05:40:50;;;;;;;7.78;2.00;;;;;;;;;;5043554;28;20112;-82
2023/04/11 05:43:28;;;;;;;5.45;2.05;;;;;;;;;;5046645;28;20531;-81
2023/04/11 05:45:54;;;;;;;12.35;1.65;;;;;;;;;;5037170;28;20049;-81
2023/04/11 05:48:19;;;;;;;7.53;1.23;;;;;;;;;;5040436;28;20388;-81
2023/04/11 05:50:57;;;;;;;8.90;1.60;;;;;;;;;;5036979;28;20112;-81
2023/04/11 05:53:23;;;;;;;11.00;2.05;;;;;;;;;;5044520;28;20040;-81
2023/04/11 05:55:48;;;;;;;7.15;1.40;;;;;;;;;;5049479;28;20060;-81
2023/04/11 05:58:28;;;;;;;5.20;0.95;;;;;;;;;;5041052;28;20104;-81
2023/04/11 06:00:54;;;;;;;7.55;1.20;;;;;;;;;;5038577;28;20579;-82
2023/04/11 06:03:20;;;;;;;18.30;2.17;;;;;;;;;;5043449;28;20117;-81
2023/04/11 06:05:59;;;;;;;15.57;2.22;;;;;;;;;;5053194;28;20044;-82
2023/04/11 06:08:24;;;;;;;5.15;1.30;;;;;;;;;;5026255;28;20075;-81
2023/04/11 06:10:49;;;;;;;11.85;1.60;;;;;;;;;;5047534;28;20072;-81
2023/04/11 06:13:27;;;;;;;13.07;1.42;;;;;;;;;;5050090;28;20029;-81
2023/04/11 06:15:53;;;;;;;16.85;1.40;;;;;;;;;;5039423;28;20099;-82
2023/04/11 06:18:18;;;;;;;10.75;1.55;;;;;;;;;;5043898;28;20033;-82
2023/04/11 06:20:56;;;;;;;8.95;1.85;;;;;;;;;;5035882;28;20041;-81
2023/04/11 06:23:22;;;;;;;10.05;1.33;;;;;;;;;;5039292;28;20087;-82
2023/04/11 06:25:47;;;;;;;7.38;1.13;;;;;;;;;;5040097;28;20029;-82
2023/04/11 06:28:26;;;;;;;12.45;1.65;;;;;;;;;;5040189;28;20041;-83
2023/04/11 06:30:51;;;;;;;15.30;1.50;;;;;;;;;;5040160;28;20032;-83
2023/04/11 06:33:16;;;;;;;7.38;1.63;;;;;;;;;;5045795;28;20041;-83
2023/04/11 06:35:56;;;;;;;7.70;1.27;;;;;;;;;;5042432;28;20040;-83
2023/04/11 06:38:21;;;;;;;12.73;1.30;;;;;;;;;;5030776;28;20041;-84
2023/04/11 06:40:47;;;;;;;6.20;1.48;;;;;;;;;;5039521;28;20083;-83
2023/04/11 06:43:25;;;;;;;8.93;1.40;;;;;;;;;;5037259;28;20047;-81
2023/04/11 06:45:51;;;;;;;8.90;1.60;;;;;;;;;;5030690;28;20044;-84
2023/04/11 06:48:16;;;;;;;13.88;1.83;;;;;;;;;;5041993;28;20377;-84
2023/04/11 06:50:55;;;;;;;18.17;2.50;;;;;;;;;;5046637;28;20392;-84
2023/04/11 06:53:21;;;;;;;9.35;1.85;;;;;;;;;;5047357;28;20033;-84
2023/04/11 06:56:02;;;;;;;8.05;1.50;;;;;;;;;;5044062;28;20056;-85
2023/04/11 06:58:28;;;;;;;6.35;1.35;;;;;;;;;;5036385;28;20048;-84
2023/04/11 07:01:06;;;;;;;12.98;2.10;;;;;;;;;;5032886;28;20041;-83
2023/04/11 07:03:32;;;;;;;10.10;1.60;;;;;;;;;;5041684;28;20532;-83
2023/04/11 07:05:57;;;;;;;6.40;1.80;;;;;;;;;;5046857;28;20037;-82
2023/04/11 07:08:36;;;;;;;8.85;1.77;;;;;;;;;;5059961;28;20116;-83
2023/04/11 07:11:02;;;;;;;11.95;2.08;;;;;;;;;;5039214;28;20044;-84
2023/04/11 07:13:27;;;;;;;11.75;2.05;;;;;;;;;;5053115;28;20035;-84
2023/04/11 07:16:05;;;;;;;13.23;1.75;;;;;;;;;;5034708;28;20045;-84
2023/04/11 07:18:31;;;;;;;13.30;1.90;;;;;;;;;;5038158;28;20504;-84
2023/04/11 07:20:56;;;;;;;13.38;2.17;;;;;;;;;;5044753;28;20029;-84
2023/04/11 07:23:35;;;;;;;10.25;1.35;;;;;;;;;;5040338;28;20464;-83
2023/04/11 07:26:00;;;;;;;15.63;2.15;;;;;;;;;;5026806;28;20091;-85
2023/04/11 07:28:27;;;;;;;16.73;2.08;;;;;;;;;;5037222;28;20489;-83
2023/04/11 07:31:06;;;;;;;12.73;2.13;;;;;;;;;;5033444;28;20358;-84
2023/04/11 07:33:32;;;;;;;10.73;1.75;;;;;;;;;;5045417;28;20033;-84
2023/04/11 07:35:58;;;;;;;8.82;1.88;;;;;;;;;;5039228;28;20056;-84
2023/04/11 07:38:36;;;;;;;9.13;1.50;;;;;;;;;;5041152;28;20102;-84
2023/04/11 07:41:03;;;;;;;7.72;1.42;;;;;;;;;;5025421;28;20077;-84
2023/04/11 07:43:30;;;;;;;10.40;1.60;;;;;;;;;;5043506;28;20038;-84
2023/04/11 07:46:09;;;;;;;7.60;1.63;;;;;;;;;;5012679;28;20048;-85
2023/04/11 07:48:34;;;;;;;7.70;1.45;;;;;;;;;;5015725;28;20041;-83
2023/04/11 07:50:59;;;;;;;7.40;1.42;;;;;;;;;;5016833;28;20045;-83
2023/04/11 07:53:37;;;;;;;8.85;1.20;;;;;;;;;;5015305;28;20069;-84
2023/04/11 07:56:03;;;;;;;12.82;1.85;;;;;;;;;;5013507;28;20049;-83
2023/04/11 07:58:29;;;;;;;8.25;1.50;;;;;;;;;;5013541;28;20382;-83
2023/04/11 08:01:08;;;;;;;6.75;1.40;;;;;;;;;;5013188;28;20127;-83
2023/04/11 08:03:34;;;;;;;6.80;1.55;;;;;;;;;;5014493;28;20073;-83
2023/04/11 08:06:00;;;;;;;8.95;1.42;;;;;;;;;;5015185;28;20052;-82
2023/04/11 08:08:38;;;;;;;7.63;1.60;;;;;;;;;;5009648;28;20025;-83
2023/04/11 08:11:04;;;;;;;6.72;1.30;;;;;;;;;;5010819;28;20390;-82
2023/04/11 08:13:29;;;;;;;9.38;1.40;;;;;;;;;;5013837;28;20034;-83
2023/04/11 08:16:13;;;;;;;9.60;1.33;;;;;;;;;;5013345;28;20112;-83
2023/04/11 08:18:40;;;;;;;7.55;1.20;;;;;;;;;;5015098;28;20042;-83
2023/04/11 08:21:12;;;;;;;5.07;1.30;;;;;;;;;;5013861;28;20387;-81
2023/04/11 08:23:45;;;;;;;10.52;1.40;;;;;;;;;;5021376;28;20038;-82
2023/04/11 08:26:11;;;;;;;9.23;1.58;;;;;;;;;;5009951;28;20390;-82
2023/04/11 08:28:43;;;;;;;14.25;1.90;;;;;;;;;;5012760;28;20041;-83
2023/04/11 08:31:15;;;;;;;12.15;1.55;;;;;;;;;;5005300;28;20441;-83
2023/04/11 08:33:40;;;;;;;8.90;1.67;;;;;;;;;;5022068;28;20106;-81
2023/04/11 08:36:12;;;;;;;8.00;1.75;;;;;;;;;;5015411;28;20026;-84
2023/04/11 08:38:44;;;;;;;9.75;1.63;;;;;;;;;;5004094;28;20037;-83
2023/04/11 08:41:11;;;;;;;10.10;1.80;;;;;;;;;;5012715;28;20378;-84
2023/04/11 08:43:44;;;;;;;8.90;1.67;;;;;;;;;;5017232;28;20339;-79
2023/04/11 08:46:17;;;;;;;;;;;;;;;;;;5006595;28;20049;-83
2023/04/11 08:48:42;;;;;;;10.25;1.80;;;;;;;;;;5015926;28;19963;-82
2023/04/11 08:51:31;;;;;;;8.55;1.73;;;;;;;;;;5014481;28;20414;-83
2023/04/11 08:53:58;;;;;;;14.63;1.70;;;;;;;;;;5014732;28;20061;-82
2023/04/11 08:59:35;;;;;;;14.45;1.67;;;;;;;;;;5008312;28;20097;-82
2023/04/11 09:02:08;;;;;;;7.10;1.88;;;;;;;;;;5008708;28;20049;-81
2023/04/11 09:04:48;;;;;;;10.55;1.90;;;;;;;;;;5009186;28;20371;-83
2023/04/11 09:07:21;;;;;;;8.77;1.95;;;;;;;;;;5013496;28;20092;-84
2023/04/11 09:09:46;;;;;;;7.57;1.50;;;;;;;;;;5012789;28;20065;-83
2023/04/11 09:12:18;;;;;;;7.85;1.40;;;;;;;;;;5011256;28;20466;-85
2023/04/11 09:14:51;;;;;;;6.35;1.63;;;;;;;;;;5028493;28;20401;-82
2023/04/11 09:17:16;;;;;;;13.55;1.65;;;;;;;;;;5006239;28;20038;-83
2023/04/11 09:19:48;;;;;;;5.47;1.52;;;;;;;;;;5007607;28;20053;-80
2023/04/11 09:22:34;;;;;;;4.47;1.10;;;;;;;;;;5015076;28;20478;-82
2023/04/11 09:25:08;;;;;;;5.60;1.20;;;;;;;;;;5032529;28;20068;-83
2023/04/11 09:27:41;;;;;;;9.63;1.80;;;;;;;;;;5009469;28;20096;-83
2023/04/11 09:30:30;;;;;;;11.98;2.05;;;;;;;;;;5005840;28;20030;-83
2023/04/11 09:33:22;;;;;;;11.30;1.48;;;;;;;;;;5045030;28;20405;-82
2023/04/11 09:35:56;;;;;;;9.98;1.83;;;;;;;;;;5020680;28;20034;-82
2023/04/11 09:38:33;;;;;;;12.15;1.75;;;;;;;;;;5014995;28;20037;-82
2023/04/11 09:41:07;;;;;;;17.52;1.92;;;;;;;;;;5010814;28;20042;-82
2023/04/11 09:43:54;;;;;;;9.60;1.85;;;;;;;;;;5013356;28;20041;-83
2023/04/11 09:46:25;;;;;;;16.27;2.00;;;;;;;;;;5028984;28;20204;-83
2023/04/11 09:49:00;;;;;;;12.57;1.50;;;;;;;;;;5023868;28;20060;-83
2023/04/11 09:51:25;;;;;;;13.00;2.42;;;;;;;;;;5019356;28;20124;-82
2023/04/11 09:53:58;;;;;;;9.00;1.92;;;;;;;;;;5017375;28;20494;-82
2023/04/11 09:56:30;;;;;;;9.27;1.55;;;;;;;;;;5007565;28;20034;-81
2023/04/11 09:58:56;;;;;;;11.87;2.77;;;;;;;;;;5020989;28;20041;-80
2023/04/11 10:01:29;;;;;;;9.98;1.73;;;;;;;;;;5020823;28;20093;-81
2023/04/11 10:04:03;;;;;;;9.13;1.90;;;;;;;;;;5015301;28;20053;-82
2023/04/11 10:06:37;;;;;;;12.07;2.15;;;;;;;;;;5022844;28;20033;-82
2023/04/11 10:09:11;;;;;;;15.88;1.75;;;;;;;;;;5017072;28;20092;-83
2023/04/11 10:11:50;;;;;;;10.20;1.65;;;;;;;;;;5033578;28;20029;-82
2023/04/11 10:14:37;;;;;;;10.07;2.17;;;;;;;;;;5019249;28;20048;-82
2023/04/11 10:17:25;;;;;;;13.05;2.28;;;;;;;;;;5009078;28;20034;-81
2023/04/11 10:19:57;;;;;;;11.38;1.50;;;;;;;;;;4990901;28;20048;-80
2023/04/11 10:22:47;;;;;;;8.65;1.90;;;;;;;;;;5005173;28;20029;-84
2023/04/11 10:25:20;;;;;;;11.25;2.05;;;;;;;;;;5010477;28;20037;-84
2023/04/11 10:27:49;;;;;;;;;;;;;;;;;;5044344;28;20040;-84
2023/04/11 10:30:22;;;;;;;11.07;1.45;;;;;;;;;;5006632;28;19917;-84
2023/04/11 10:33:09;;;;;;;9.52;1.73;;;;;;;;;;5013470;28;20049;-82
2023/04/11 10:35:41;;;;;;;11.13;1.70;;;;;;;;;;5045515;28;20042;-84
2023/04/11 10:38:36;;;;;;;14.73;2.08;;;;;;;;;;5021418;28;20378;-83
2023/04/11 10:41:27;;;;;;;11.65;2.33;;;;;;;;;;5013815;28;20034;-83
2023/04/11 10:44:17;;;;;;;12.15;1.60;;;;;;;;;;5009322;28;20042;-83
2023/04/11 10:46:56;;;;;;;10.05;1.85;;;;;;;;;;5029204;28;20040;-83
2023/04/11 10:49:31;;;;;;;10.68;1.92;;;;;;;;;;5013514;28;20394;-81
2023/04/11 10:52:28;;;;;;;19.92;2.38;;;;;;;;;;5045676;28;20368;-82
2023/04/11 10:55:13;;;;;;;13.18;2.00;;;;;;;;;;5006299;28;20126;-82
2023/04/11 10:58:21;;;;;;;6.60;1.63;;;;;;;;;;5013359;28;20421;-82
2023/04/11 11:00:59;;;;;;;11.85;2.00;;;;;;;;;;5007086;28;20529;-82
2023/04/11 11:03:36;;;;;;;12.68;2.50;;;;;;;;;;5013880;28;20046;-82
2023/04/11 11:06:12;;;;;;;15.75;1.83;;;;;;;;;;5043914;28;20092;-81
2023/04/11 11:08:46;;;;;;;13.82;2.10;;;;;;;;;;5013781;28;20069;-84
2023/04/11 11:11:18;;;;;;;5.57;1.48;;;;;;;;;;4993672;28;20046;-82
2023/04/11 11:13:44;;;;;;;5.10;1.30;;;;;;;;;;5013821;28;20038;-83
2023/04/11 11:16:21;;;;;;;11.60;1.73;;;;;;;;;;5013899;28;20030;-82
2023/04/11 11:18:57;;;;;;;12.90;2.15;;;;;;;;;;5043898;28;20038;-82
2023/04/11 11:21:31;;;;;;;11.02;2.28;;;;;;;;;;5013699;28;20366;-82
2023/04/11 11:24:04;;;;;;;9.75;1.45;;;;;;;;;;5013494;28;20797;-81
2023/04/11 11:26:49;;;;;;;9.60;1.73;;;;;;;;;;5013896;28;20121;-83
2023/04/11 11:29:35;;;;;;;8.38;2.47;;;;;;;;;;5003643;28;20494;-82
2023/04/11 11:32:08;;;;;;;13.23;2.13;;;;;;;;;;5012457;28;20105;-82
2023/04/11 11:34:40;;;;;;;14.57;3.60;;;;;;;;;;5013513;28;20107;-81
2023/04/11 11:37:05;;;;;;;12.80;3.50;;;;;;;;;;5000381;28;20112;-81
2023/04/11 11:39:38;;;;;;;9.77;2.33;;;;;;;;;;5028563;28;20030;-82
2023/04/11 11:42:10;;;;;;;12.20;2.67;;;;;;;;;;5005183;28;20042;-82
2023/04/11 11:44:36;;;;;;;14.23;2.17;;;;;;;;;;5013311;28;20057;-82
2023/04/11 11:47:13;;;;;;;15.63;2.13;;;;;;;;;;5013303;28;20030;-83
2023/04/11 11:49:53;;;;;;;11.63;2.40;;;;;;;;;;5042739;28;20049;-83
2023/04/11 11:52:42;;;;;;;7.05;1.45;;;;;;;;;;5008490;28;20065;-82
2023/04/11 11:55:17;;;;;;;8.75;1.50;;;;;;;;;;5001825;28;20042;-82
2023/04/11 11:57:50;;;;;;;11.60;2.70;;;;;;;;;;5010294;28;20053;-83
2023/04/11 12:00:23;;;;;;;14.63;1.50;;;;;;;;;;5007869;28;20038;-82
2023/04/11 12:02:59;;;;;;;11.95;1.70;;;;;;;;;;5027383;28;20049;-83
2023/04/11 12:05:32;;;;;;;8.48;1.67;;;;;;;;;;5011081;28;20382;-82
2023/04/11 12:08:06;;;;;;;14.65;1.80;;;;;;;;;;5013301;28;20045;-83
2023/04/11 12:10:40;;;;;;;6.75;1.50;;;;;;;;;;5017179;28;20038;-81
2023/04/11 12:13:18;;;;;;;;;;;;;;;;;;5014059;28;20180;-82
2023/04/11 12:15:54;;;;;;;10.10;1.85;;;;;;;;;;5002376;28;19917;-84
2023/04/11 12:18:28;;;;;;;10.07;1.40;;;;;;;;;;5013179;28;20493;-83
2023/04/11 12:21:00;;;;;;;5.38;1.48;;;;;;;;;;5011701;28;20485;-82
2023/04/11 12:23:25;;;;;;;13.20;1.55;;;;;;;;;;5018874;28;20033;-81
2023/04/11 12:25:58;;;;;;;8.23;1.25;;;;;;;;;;5012417;28;20033;-82
2023/04/11 12:28:30;;;;;;;4.40;1.98;;;;;;;;;;5019592;28;20034;-82
2023/04/11 12:30:55;;;;;;;8.80;1.60;;;;;;;;;;5003211;28;20048;-83
2023/04/11 12:33:27;;;;;;;7.22;1.30;;;;;;;;;;5012322;28;20034;-83
2023/04/11 12:35:59;;;;;;;11.23;1.70;;;;;;;;;;5010482;28;20038;-82
2023/04/11 12:38:24;;;;;;;8.38;1.38;;;;;;;;;;5016027;28;20064;-82
2023/04/11 12:40:56;;;;;;;6.55;1.30;;;;;;;;;;5009647;28;20478;-83
2023/04/11 12:43:28;;;;;;;6.03;1.30;;;;;;;;;;5001978;28;20049;-83
2023/04/11 12:45:53;;;;;;;7.80;1.38;;;;;;;;;;5010034;28;20139;-82
2023/04/11 12:48:25;;;;;;;7.55;1.35;;;;;;;;;;5011142;28;20458;-83
2023/04/11 12:50:57;;;;;;;10.15;1.52;;;;;;;;;;5013725;28;20137;-83
2023/04/11 12:53:22;;;;;;;5.80;0.90;;;;;;;;;;5010891;28;20148;-83
2023/04/11 12:55:54;;;;;;;9.60;1.63;;;;;;;;;;5009497;28;20117;-82
2023/04/11 12:58:27;;;;;;;8.93;1.40;;;;;;;;;;5014844;28;20469;-82
2023/04/11 13:00:53;;;;;;;;;;;;;;;;;;4990122;28;20075;-82
2023/04/11 13:03:25;;;;;;;5.57;1.30;;;;;;;;;;5012114;28;20348;-82
2023/04/11 13:05:57;;;;;;;5.25;1.20;;;;;;;;;;5007356;28;20393;-81
2023/04/11 13:08:22;;;;;;;13.98;2.03;;;;;;;;;;5020408;28;20111;-77
2023/04/11 13:10:54;;;;;;;8.13;1.60;;;;;;;;;;5009985;28;20632;-79
2023/04/11 13:13:26;;;;;;;4.80;1.58;;;;;;;;;;5005757;28;20044;-81
2023/04/11 13:15:51;;;;;;;10.85;1.92;;;;;;;;;;5012950;28;20072;-82
2023/04/11 13:18:23;;;;;;;7.63;1.55;;;;;;;;;;5022867;28;20073;-82
2023/04/11 13:20:55;;;;;;;8.18;1.38;;;;;;;;;;5015558;28;20040;-81
2023/04/11 13:23:20;;;;;;;7.85;1.40;;;;;;;;;;5021904;28;20100;-82
2023/04/11 13:25:52;;;;;;;5.43;1.10;;;;;;;;;;5018713;28;20026;-82
2023/04/11 13:28:24;;;;;;;6.47;1.60;;;;;;;;;;5015202;28;20485;-82
2023/04/11 13:30:49;;;;;;;9.90;1.15;;;;;;;;;;5018774;28;20096;-82
2023/04/11 13:33:21;;;;;;;7.80;1.33;;;;;;;;;;5016912;28;20037;-82
2023/04/11 13:35:53;;;;;;;4.70;1.30;;;;;;;;;;5020456;28;20069;-82
2023/04/11 13:38:18;;;;;;;7.05;1.60;;;;;;;;;;5012459;28;20445;-82
2023/04/11 13:40:50;;;;;;;7.03;1.33;;;;;;;;;;5013383;28;20026;-82
2023/04/11 13:43:22;;;;;;;10.13;1.25;;;;;;;;;;5014175;28;20076;-82
2023/04/11 13:45:47;;;;;;;8.40;1.48;;;;;;;;;;5017339;28;20432;-82
2023/04/11 13:48:19;;;;;;;4.00;1.15;;;;;;;;;;5017632;28;20034;-81
2023/04/11 13:50:51;;;;;;;6.22;1.38;;;;;;;;;;5012120;28;20038;-81
2023/04/11 13:53:16;;;;;;;6.38;0.95;;;;;;;;;;5013642;28;20505;-81
2023/04/11 13:55:50;;;;;;;7.15;1.33;;;;;;;;;;5012918;28;20025;-81
2023/04/11 13:58:22;;;;;;;2.92;0.73;;;;;;;;;;5001268;28;20038;-81
2023/04/11 14:00:49;;;;;;;10.20;1.10;;;;;;;;;;5012099;28;20449;-81
2023/04/11 14:03:21;;;;;;;9.57;1.33;;;;;;;;;;5011583;28;20085;-81
2023/04/11 14:05:53;;;;;;;5.00;1.33;;;;;;;;;;5016080;28;20052;-82
2023/04/11 14:08:18;;;;;;;2.28;0.90;;;;;;;;;;5014180;28;20061;-82
2023/04/11 14:10:50;;;;;;;4.78;1.20;;;;;;;;;;5016805;28;20552;-81
2023/04/11 14:13:22;;;;;;;4.93;0.90;;;;;;;;;;5024356;28;20054;-82
2023/04/11 14:15:48;;;;;;;5.60;1.30;;;;;;;;;;5022937;28;20046;-82
2023/04/11 14:18:20;;;;;;;6.20;1.00;;;;;;;;;;5026048;28;20587;-79
2023/04/11 14:20:52;;;;;;;5.65;0.90;;;;;;;;;;5014572;28;20088;-82
2023/04/11 14:23:19;;;;;;;9.57;1.02;;;;;;;;;;5014689;28;20046;-82
2023/04/11 14:25:51;;;;;;;5.03;1.10;;;;;;;;;;5029520;28;20036;-80
2023/04/11 14:28:23;;;;;;;7.35;1.08;;;;;;;;;;5014401;28;20131;-82
2023/04/11 14:30:48;;;;;;;4.72;1.08;;;;;;;;;;5014515;28;20390;-82
2023/04/11 14:33:20;;;;;;;8.85;1.50;;;;;;;;;;5003226;28;20042;-82
2023/04/11 14:35:52;;;;;;;5.03;1.02;;;;;;;;;;5013627;28;20038;-81
2023/04/11 14:38:17;;;;;;;1.50;0.60;;;;;;;;;;5014328;28;20041;-81
2023/04/11 14:40:50;;;;;;;4.57;1.52;;;;;;;;;;5025292;28;20088;-80
2023/04/11 14:43:22;;;;;;;7.50;1.30;;;;;;;;;;5014338;28;20129;-81
2023/04/11 14:45:47;;;;;;;7.53;2.05;;;;;;;;;;5010192;28;20391;-81
2023/04/11 14:48:19;;;;;;;7.57;1.92;;;;;;;;;;5012512;28;20034;-81
2023/04/11 14:50:51;;;;;;;6.38;2.33;;;;;;;;;;5013281;28;20041;-81
2023/04/11 14:53:16;;;;;;;3.80;1.20;;;;;;;;;;5014231;28;20058;-82
2023/04/11 14:55:49;;;;;;;11.88;2.00;;;;;;;;;;5013635;28;20447;-81
2023/04/11 14:58:21;;;;;;;4.30;0.88;;;;;;;;;;5014016;28;20038;-81
2023/04/11 15:00:46;;;;;;;2.97;1.20;;;;;;;;;;4998206;28;20029;-80
2023/04/11 15:03:18;;;;;;;4.75;1.58;;;;;;;;;;5012526;28;20504;-81
2023/04/11 15:05:50;;;;;;;5.07;2.15;;;;;;;;;;5014760;28;20040;-81
2023/04/11 15:08:15;;;;;;;8.85;1.77;;;;;;;;;;5017860;28;20405;-81